Time;durP1;ratioP1;P1;durP2;ratioP2;P2;SDS_P1;SDS_P2;PMS_P1;PMS_P2;Temp;Humidity;BMP_temperature;BMP_pressure;BME280_temperature;BME280_humidity;BME280_pressure;Samples;Min_cycle;Max_cycle;Signal;HPM_P1;HPM_P2
2022/06/15 00:00:40;;;;;;;;;;;;;;;14.77;58.76;99399.16;5061625;28;19931;-78
2022/06/15 00:03:06;;;;;;;;;;;;;;;14.78;58.32;99399.03;5078113;28;19924;-78
2022/06/15 00:05:32;;;;;;;;;;;;;;;14.80;58.16;99397.03;5078025;28;19924;-78
2022/06/15 00:07:58;;;;;;;;;;;;;;;14.83;58.69;99398.59;5094596;28;19930;-78
2022/06/15 00:10:23;;;;;;;;;;;;;;;14.86;58.41;99400.16;5096005;28;19924;-77
2022/06/15 00:12:49;;;;;;;;;;;;;;;14.86;58.54;99397.44;5095153;28;19924;-78
2022/06/15 00:15:15;;;;;;;;;;;;;;;14.91;58.67;99408.59;5094836;28;19931;-77
2022/06/15 00:17:41;;;;;;;;;;;;;;;14.95;58.75;99415.38;5078041;28;19924;-78
2022/06/15 00:20:07;;;;;;;;;;;;;;;14.95;58.93;99412.69;5095805;28;19928;-79
2022/06/15 00:22:33;;;;;;;;;;;;;;;14.95;58.87;99416.22;5111240;28;19970;-78
2022/06/15 00:24:59;;;;;;;;;;;;;;;15.00;58.82;99410.38;5095011;28;19924;-78
2022/06/15 00:27:25;;;;;;;;;;;;;;;15.02;58.88;99405.72;5111607;28;19971;-78
2022/06/15 00:29:50;;;;;;;;;;;;;;;15.02;58.59;99405.72;5077736;28;19924;-78
2022/06/15 00:32:16;;;;;;;;;;;;;;;15.01;58.71;99409.41;5077823;28;20302;-77
2022/06/15 00:34:42;;;;;;;;;;;;;;;14.96;58.86;99412.53;5111439;28;19928;-78
2022/06/15 00:37:08;;;;;;;;;;;;;;;15.00;58.59;99413.09;5077276;28;19975;-78
2022/06/15 00:39:34;;;;;;;;;;;;;;;15.00;58.99;99415.78;5094531;28;20008;-77
2022/06/15 00:42:00;;;;;;;;;;;;;;;14.98;59.28;99420.47;5095090;28;19928;-78
2022/06/15 00:44:34;;;;;;;;;;;;;;;15.01;58.68;99420.19;5094221;28;20027;-79
2022/06/15 00:47:03;;;;;;;;;;;;;;;14.98;59.01;99417.78;5094263;28;19973;-79
2022/06/15 00:49:37;;;;;;;;;;;;;;;14.99;59.03;99422.16;5077398;28;19923;-79
2022/06/15 00:52:07;;;;;;;;;;;;;;;15.01;59.06;99421.03;5061069;28;19924;-79
2022/06/15 00:54:33;;;;;;;;;;;;;;;15.04;58.88;99419.88;5094466;28;20383;-79
2022/06/15 00:57:01;;;;;;;;;;;;;;;15.04;59.29;99419.88;5077454;28;19931;-79
2022/06/15 00:59:33;;;;;;;;;;;;;;;15.03;59.38;99419.03;5094106;28;19957;-79
2022/06/15 01:01:59;;;;;;;;;;;;;;;15.09;59.12;99422.97;5093967;28;19923;-79
2022/06/15 01:04:26;;;;;;;;;;;;;;;15.13;58.90;99412.75;5060758;28;20409;-78
2022/06/15 01:06:55;;;;;;;;;;;;;;;15.10;58.84;99408.50;5060184;28;19931;-77
2022/06/15 01:09:25;;;;;;;;;;;;;;;15.14;58.81;99419.81;5093634;28;19931;-78
2022/06/15 01:12:11;;;;;;;;;;;;;;;15.17;59.00;99425.75;5110871;28;19924;-78
2022/06/15 01:14:42;;;;;;;;;;;;;;;15.22;58.96;99420.75;5094024;28;20453;-78
2022/06/15 01:17:14;;;;;;;;;;;;;;;15.22;58.76;99417.22;5094938;28;19924;-78
2022/06/15 01:19:45;;;;;;;;;;;;;;;15.18;59.04;99426.59;5110460;28;19924;-78
2022/06/15 01:22:11;;;;;;;;;;;;;;;15.18;58.71;99423.91;5110467;28;19924;-79
2022/06/15 01:24:52;;;;;;;;;;;;;;;15.24;58.87;99424.16;5094887;28;19961;-78
2022/06/15 01:27:18;;;;;;;;;;;;;;;15.36;58.54;99440.13;5060225;28;19923;-78
2022/06/15 01:30:02;;;;;;;;;;;;;;;15.36;58.50;99440.97;5094667;28;20311;-79
2022/06/15 01:32:38;;;;;;;;;;;;;;;15.36;58.46;99424.78;5093305;28;19924;-79
2022/06/15 01:35:19;;;;;;;;;;;;;;;15.44;58.39;99427.56;5059919;28;19924;-78
2022/06/15 01:37:52;;;;;;;;;;;;;;;15.45;58.00;99431.13;5094684;28;20035;-79
2022/06/15 01:40:27;;;;;;;;;;;;;;;15.35;58.85;99431.19;5093044;28;19998;-79
2022/06/15 01:42:56;;;;;;;;;;;;;;;15.44;58.22;99426.72;5094576;28;19928;-78
2022/06/15 01:45:26;;;;;;;;;;;;;;;15.55;58.11;99426.50;5076002;28;19924;-78
2022/06/15 01:47:56;;;;;;;;;;;;;;;15.60;57.94;99432.28;5058760;28;20394;-78
2022/06/15 01:50:23;;;;;;;;;;;;;;;15.61;57.53;99428.59;5059090;28;19935;-78
2022/06/15 01:52:56;;;;;;;;;;;;;;;15.67;57.62;99430.72;5075650;28;19969;-77
2022/06/15 01:55:26;;;;;;;;;;;;;;;15.74;57.47;99423.69;5076664;28;19931;-77
2022/06/15 01:57:53;;;;;;;;;;;;;;;15.84;57.50;99428.19;5075835;28;20383;-78
2022/06/15 02:00:20;;;;;;;;;;;;;;;15.90;57.31;99432.94;5075944;28;19924;-78
2022/06/15 02:02:54;;;;;;;;;;;;;;;15.98;57.24;99430.31;5092930;28;19924;-78
2022/06/15 02:05:37;;;;;;;;;;;;;;;16.04;57.12;99427.00;5092988;28;19924;-79
2022/06/15 02:08:13;;;;;;;;;;;;;;;16.11;56.61;99425.38;5076309;28;19947;-78
2022/06/15 02:10:47;;;;;;;;;;;;;;;16.16;56.56;99428.44;5075331;28;19947;-79
2022/06/15 02:13:22;;;;;;;;;;;;;;;16.22;56.64;99422.44;5075901;28;19924;-78
2022/06/15 02:16:10;;;;;;;;;;;;;;;16.35;56.49;99429.25;5064857;28;19928;-79
2022/06/15 02:18:39;;;;;;;;;;;;;;;16.48;56.14;99432.41;5075257;28;19924;-78
2022/06/15 02:21:08;;;;;;;;;;;;;;;16.56;55.93;99431.63;5059045;28;20416;-78
2022/06/15 02:23:35;;;;;;;;;;;;;;;16.72;55.46;99434.41;5092268;28;20005;-78
2022/06/15 02:26:02;;;;;;;;;;;;;;;16.83;55.30;99436.03;5092615;28;19924;-79
2022/06/15 02:28:31;;;;;;;;;;;;;;;16.96;55.43;99441.81;5075130;28;20026;-81
2022/06/15 02:30:57;;;;;;;;;;;;;;;17.09;54.82;99442.22;5058606;28;20371;-79
2022/06/15 02:33:31;;;;;;;;;;;;;;;17.10;54.64;99438.50;5091874;28;19967;-79
2022/06/15 02:35:59;;;;;;;;;;;;;;;17.25;54.56;99438.72;5092365;28;19924;-79
2022/06/15 02:38:28;;;;;;;;;;;;;;;17.31;54.47;99432.69;5075528;28;19982;-78
2022/06/15 02:40:54;;;;;;;;;;;;;;;17.47;53.83;99440.00;5091729;28;19977;-81
2022/06/15 02:43:21;;;;;;;;;;;;;;;17.53;53.88;99431.25;5108847;28;19924;-81
2022/06/15 02:45:48;;;;;;;;;;;;;;;17.69;53.02;99427.72;5075048;28;19935;-81
2022/06/15 02:48:15;;;;;;;;;;;;;;;17.79;53.02;99428.44;5074598;28;20353;-80
2022/06/15 02:51:02;;;;;;;;;;;;;;;17.86;52.88;99428.59;5058165;28;20028;-81
2022/06/15 02:53:33;;;;;;;;;;;;;;;17.94;52.76;99431.31;5075567;28;19924;-81
2022/06/15 02:56:00;;;;;;;;;;;;;;;17.94;52.80;99426.78;5058289;28;19985;-83
2022/06/15 02:58:29;;;;;;;;;;;;;;;17.95;52.90;99424.91;5074739;28;19969;-83
2022/06/15 03:00:58;;;;;;;;;;;;;;;18.08;52.72;99433.34;5094631;28;20106;-80
2022/06/15 03:03:27;;;;;;;;;;;;;;;18.16;52.01;99430.63;5079656;28;19972;-84
2022/06/15 03:06:15;;;;;;;;;;;;;;;18.20;51.86;99440.13;5080862;28;20030;-83
2022/06/15 03:08:42;;;;;;;;;;;;;;;18.20;51.76;99442.84;5113129;28;19924;-85
2022/06/15 03:11:19;;;;;;;;;;;;;;;18.19;51.72;99451.13;5112852;28;20023;-83
2022/06/15 03:13:45;;;;;;;;;;;;;;;18.29;51.76;99445.53;5096447;28;19924;-83
2022/06/15 03:16:14;;;;;;;;;;;;;;;18.33;51.42;99447.72;5063577;28;19928;-84
2022/06/15 03:18:42;;;;;;;;;;;;;;;18.42;51.20;99445.84;5096092;28;19924;-81
2022/06/15 03:21:09;;;;;;;;;;;;;;;18.48;50.95;99438.94;5114953;28;20061;-81
2022/06/15 03:23:35;;;;;;;;;;;;;;;18.60;50.93;99441.09;5076161;28;20403;-82
2022/06/15 03:26:04;;;;;;;;;;;;;;;18.60;50.84;99442.97;5071105;28;20398;-82
2022/06/15 03:28:34;;;;;;;;;;;;;;;18.73;50.71;99437.03;5080016;28;19931;-88
2022/06/15 03:31:01;;;;;;;;;;;;;;;18.80;50.81;99430.75;5063172;28;19969;-81
2022/06/15 03:33:28;;;;;;;;;;;;;;;18.88;50.60;99441.59;5079271;28;20255;-85
2022/06/15 03:35:57;;;;;;;;;;;;;;;18.91;50.29;99440.38;5063147;28;19973;-86
2022/06/15 03:38:28;;;;;;;;;;;;;;;18.92;50.35;99433.97;5080925;28;20325;-88
2022/06/15 03:41:04;;;;;;;;;;;;;;;19.01;50.36;99441.03;5064634;28;19981;-89
2022/06/15 03:43:29;;;;;;;;;;;;;;;19.16;50.45;99444.69;5095846;28;20285;-88
2022/06/15 03:45:56;;;;;;;;;;;;;;;19.21;49.76;99440.63;5062047;28;19931;-86
2022/06/15 03:48:23;;;;;;;;;;;;;;;19.29;49.70;99437.88;5098880;28;20294;-87
2022/06/15 03:50:49;;;;;;;;;;;;;;;19.38;49.64;99436.81;5079035;28;20325;-83
2022/06/15 03:53:17;;;;;;;;;;;;;;;19.52;49.78;99433.38;5062268;28;20402;-85
2022/06/15 03:55:44;;;;;;;;;;;;;;;19.64;49.43;99433.84;5095689;28;19949;-83
2022/06/15 03:58:16;;;;;;;;;;;;;;;19.81;49.21;99437.25;5078882;28;19924;-92
2022/06/15 04:00:42;;;;;;;;;;;;;;;19.98;49.11;99438.84;5095571;28;19946;-88
2022/06/15 04:03:12;;;;;;;;;;;;;;;20.08;48.30;99428.59;5079696;28;19924;-88
2022/06/15 04:06:05;;;;;;;;;;;;;;;20.20;48.69;99437.16;5077134;28;19978;-82
2022/06/15 04:08:35;;;;;;;;;;;;;;;20.36;48.76;99444.31;5099512;28;19927;-87
2022/06/15 04:11:07;;;;;;;;;;;;;;;20.52;48.60;99440.63;5094132;28;20011;-86
2022/06/15 04:13:34;;;;;;;;;;;;;;;20.59;48.17;99433.44;5091995;28;19925;-90
2022/06/15 04:16:02;;;;;;;;;;;;;;;20.70;48.60;99440.28;5058168;28;20303;-86
2022/06/15 04:18:28;;;;;;;;;;;;;;;20.75;48.94;99435.97;5074264;28;20022;-85
2022/06/15 04:20:57;;;;;;;;;;;;;;;20.89;48.82;99439.75;5074642;28;20422;-85
2022/06/15 04:23:26;;;;;;;;;;;;;;;20.97;48.50;99434.19;5058169;28;19925;-85
2022/06/15 04:25:54;;;;;;;;;;;;;;;21.08;48.88;99441.03;5091571;28;19924;-84
2022/06/15 04:28:28;;;;;;;;;;;;;;;21.22;48.49;99439.38;5042053;28;19930;-84
2022/06/15 04:30:56;;;;;;;;;;;;;;;21.35;48.15;99431.38;5058609;28;19924;-87
2022/06/15 04:33:28;;;;;;;;;;;;;;;21.36;47.93;99430.34;5076245;28;19924;-84
2022/06/15 04:35:57;;;;;;;;;;;;;;;21.42;47.95;99439.63;5048069;28;20080;-87
2022/06/15 04:38:23;;;;;;;;;;;;;;;21.54;47.68;99433.50;5080404;28;20019;-85
2022/06/15 04:40:57;;;;;;;;;;;;;;;21.65;47.69;99431.31;5076040;28;19951;-86
2022/06/15 04:43:22;;;;;;;;;;;;;;;21.76;47.78;99430.81;5077040;28;20388;-84
2022/06/15 04:45:49;;;;;;;;;;;;;;;21.93;46.99;99434.16;5075666;28;19986;-85
2022/06/15 04:48:25;;;;;;;;;;;;;;;21.97;46.79;99433.56;5057384;28;20399;-83
2022/06/15 04:50:53;;;;;;;;;;;;;;;22.03;46.97;99430.06;5074046;28;19928;-84
2022/06/15 04:53:21;;;;;;;;;;;;;;;22.16;46.73;99431.25;5074998;28;20260;-86
2022/06/15 04:55:50;;;;;;;;;;;;;;;22.36;46.40;99435.00;5057229;28;19924;-86
2022/06/15 04:58:16;;;;;;;;;;;;;;;22.43;46.12;99425.00;5056916;28;19924;-87
2022/06/15 05:00:43;;;;;;;;;;;;;;;22.43;46.10;99424.16;5056828;28;19958;-85
2022/06/15 05:03:11;;;;;;;;;;;;;;;22.41;46.57;99429.78;5073740;28;19967;-84
2022/06/15 05:05:37;;;;;;;;;;;;;;;22.64;46.31;99425.97;5056850;28;19994;-88
2022/06/15 05:08:07;;;;;;;;;;;;;;;22.79;45.74;99429.44;5056812;28;19931;-86
2022/06/15 05:10:33;;;;;;;;;;;;;;;22.91;45.24;99433.34;5040159;28;19989;-82
2022/06/15 05:12:58;;;;;;;;;;;;;;;23.00;45.22;99432.13;5073280;28;19990;-83
2022/06/15 05:15:26;;;;;;;;;;;;;;;23.07;44.80;99420.44;5090201;28;19932;-85
2022/06/15 05:18:02;;;;;;;;;;;;;;;23.19;44.79;99422.38;5073107;28;20435;-85
2022/06/15 05:20:28;;;;;;;;;;;;;;;23.34;44.15;99422.22;5072956;28;19928;-86
2022/06/15 05:22:55;;;;;;;;;;;;;;;23.51;44.68;99420.00;5055975;28;19924;-84
2022/06/15 05:25:27;;;;;;;;;;;;;;;23.69;44.06;99422.16;5041067;28;19931;-84
2022/06/15 05:27:52;;;;;;;;;;;;;;;23.83;43.15;99421.16;5074136;28;20018;-85
2022/06/15 05:30:18;;;;;;;;;;;;;;;23.97;42.42;99422.03;5074475;28;19971;-86
2022/06/15 05:32:44;;;;;;;;;;;;;;;24.00;41.40;99421.63;5072979;28;20015;-86
2022/06/15 05:35:10;;;;;;;;;;;;;;;24.14;41.91;99428.75;5056001;28;20383;-83
2022/06/15 05:37:36;;;;;;;;;;;;;;;24.23;41.32;99415.75;5056483;28;20010;-87
2022/06/15 05:40:03;;;;;;;;;;;;;;;24.38;41.56;99410.94;5074212;28;20377;-86
2022/06/15 05:42:29;;;;;;;;;;;;;;;24.55;41.14;99418.72;5072889;28;19968;-85
2022/06/15 05:45:02;;;;;;;;;;;;;;;24.71;41.37;99418.25;5073079;28;20345;-85
2022/06/15 05:47:30;;;;;;;;;;;;;;;24.65;40.73;99419.13;5040805;28;19932;-87
2022/06/15 05:50:21;;;;;;;;;;;;;;;24.82;40.67;99412.16;5059003;28;19925;-89
2022/06/15 05:53:04;;;;;;;;;;;;;;;25.06;40.12;99410.63;5072984;28;19928;-83
2022/06/15 05:55:31;;;;;;;;;;;;;;;25.14;39.53;99412.31;5039676;28;19931;-86
2022/06/15 05:57:57;;;;;;;;;;;;;;;25.27;39.61;99406.78;5073358;28;19928;-84
2022/06/15 06:00:25;;;;;;;;;;;;;;;25.37;39.13;99407.19;5056203;28;20023;-84
2022/06/15 06:02:51;;;;;;;;;;;;;;;25.40;39.44;99405.91;5039424;28;19974;-84
2022/06/15 06:05:17;;;;;;;;;;;;;;;25.56;39.48;99407.31;5057175;28;19925;-85
2022/06/15 06:07:42;;;;;;;;;;;;;;;25.74;39.71;99401.94;5041788;28;19924;-86
2022/06/15 06:10:08;;;;;;;;;;;;;;;25.91;39.43;99403.13;5073662;28;19931;-86
2022/06/15 06:12:34;;;;;;;;;;;;;;;26.13;38.70;99406.31;5055986;28;19924;-86
2022/06/15 06:15:00;;;;;;;;;;;;;;;26.14;37.54;99409.94;5056190;28;20326;-86
2022/06/15 06:17:25;;;;;;;;;;;;;;;26.02;37.20;99406.22;5072638;28;20309;-85
2022/06/15 06:19:52;;;;;;;;;;;;;;;25.89;37.38;99407.97;5073456;28;20024;-84
2022/06/15 06:22:17;;;;;;;;;;;;;;;26.08;37.39;99405.34;5088945;28;19928;-85
2022/06/15 06:24:43;;;;;;;;;;;;;;;26.14;36.95;99401.72;5088816;28;19924;-85
2022/06/15 06:27:11;;;;;;;;;;;;;;;26.19;35.97;99412.84;5072767;28;19930;-82
2022/06/15 06:29:37;;;;;;;;;;;;;;;26.02;35.43;99398.81;5073423;28;20426;-85
2022/06/15 06:32:03;;;;;;;;;;;;;;;25.98;36.55;99402.22;5072448;28;19952;-86
2022/06/15 06:34:31;;;;;;;;;;;;;;;26.04;36.81;99396.72;5054724;28;19931;-84
2022/06/15 06:37:00;;;;;;;;;;;;;;;26.37;35.94;99404.69;5073195;28;19929;-84
2022/06/15 06:39:28;;;;;;;;;;;;;;;26.46;35.31;99398.94;5054872;28;19924;-84
2022/06/15 06:41:55;;;;;;;;;;;;;;;26.65;35.04;99392.44;5038206;28;19928;-83
2022/06/15 06:44:21;;;;;;;;;;;;;;;26.72;34.81;99393.19;5071766;28;19977;-85
2022/06/15 06:46:48;;;;;;;;;;;;;;;26.93;34.71;99394.69;5055328;28;20398;-84
2022/06/15 06:49:14;;;;;;;;;;;;;;;27.13;34.61;99389.00;5055560;28;19929;-84
2022/06/15 06:51:40;;;;;;;;;;;;;;;27.23;34.66;99388.44;5055732;28;19974;-85
2022/06/15 06:54:07;;;;;;;;;;;;;;;27.09;34.89;99399.56;5088844;28;19924;-83
2022/06/15 06:56:35;;;;;;;;;;;;;;;27.07;34.91;99387.13;5071726;28;19925;-83
2022/06/15 06:59:02;;;;;;;;;;;;;;;27.38;34.45;99391.63;5088733;28;20022;-83
2022/06/15 07:01:27;;;;;;;;;;;;;;;27.51;34.10;99390.63;5055288;28;19928;-85
2022/06/15 07:03:53;;;;;;;;;;;;;;;27.18;33.62;99397.38;5071672;28;19928;-84
2022/06/15 07:06:19;;;;;;;;;;;;;;;27.00;34.34;99394.59;5055440;28;20038;-84
2022/06/15 07:08:45;;;;;;;;;;;;;;;27.03;33.93;99391.38;5054908;28;19925;-84
2022/06/15 07:11:16;;;;;;;;;;;;;;;27.08;30.61;99375.06;5055552;28;19924;-86
2022/06/15 07:13:42;;;;;;;;;;;;;;;26.98;31.55;99391.25;5088397;28;19998;-83
2022/06/15 07:16:13;;;;;;;;;;;;;;;26.98;31.41;99396.75;5071598;28;19931;-83
2022/06/15 07:18:39;;;;;;;;;;;;;;;27.21;30.73;99391.41;5071880;28;19924;-85
2022/06/15 07:21:06;;;;;;;;;;;;;;;27.49;30.51;99392.75;5038635;28;19947;-84
2022/06/15 07:23:32;;;;;;;;;;;;;;;27.96;30.67;99376.47;5089001;28;19924;-85
2022/06/15 07:26:01;;;;;;;;;;;;;;;28.35;29.67;99385.97;5088899;28;19936;-84
2022/06/15 07:28:27;;;;;;;;;;;;;;;28.41;29.02;99378.75;5054744;28;19940;-85
2022/06/15 07:30:52;;;;;;;;;;;;;;;28.65;29.09;99380.41;5055042;28;20291;-86
2022/06/15 07:33:19;;;;;;;;;;;;;;;28.90;28.72;99379.31;5072707;28;20070;-83
2022/06/15 07:35:45;;;;;;;;;;;;;;;28.35;27.73;99390.63;5054412;28;20391;-83
2022/06/15 07:38:10;;;;;;;;;;;;;;;28.04;28.94;99395.38;5070983;28;20027;-84
2022/06/15 07:40:36;;;;;;;;;;;;;;;27.92;28.57;99391.75;5071048;28;20031;-84
2022/06/15 07:43:02;;;;;;;;;;;;;;;28.09;28.95;99392.75;5071243;28;20012;-83
2022/06/15 07:45:28;;;;;;;;;;;;;;;28.43;28.64;99384.81;5055690;28;19935;-84
2022/06/15 07:50:38;;;;;;;;;;;;;;;28.07;29.13;99383.91;5075895;28;20283;-85
2022/06/15 07:53:06;;;;;;;;;;;;;;;28.19;29.34;99373.78;5057937;28;20408;-84
2022/06/15 07:55:33;;;;;;;;;;;;;;;28.26;29.56;99374.50;5058117;28;19925;-84
2022/06/15 07:58:00;;;;;;;;;;;;;;;28.69;30.11;99378.00;5075830;28;20284;-83
2022/06/15 08:00:26;;;;;;;;;;;;;;;28.62;29.10;99375.38;5074645;28;19947;-84
2022/06/15 08:02:52;;;;;;;;;;;;;;;29.05;29.17;99371.41;5091302;28;19974;-84
2022/06/15 08:05:18;;;;;;;;;;;;;;;29.64;27.97;99376.75;5057709;28;19924;-84
2022/06/15 08:07:45;;;;;;;;;;;;;;;29.68;27.91;99378.78;5057724;28;19996;-87
2022/06/15 08:10:11;;;;;;;;;;;;;;;29.69;27.93;99377.69;5074535;28;20031;-85
2022/06/15 08:12:37;;;;;;;;;;;;;;;29.61;28.72;99383.59;5075743;28;20387;-87
2022/06/15 08:15:03;;;;;;;;;;;;;;;29.64;27.65;99383.13;5074434;28;19931;-85
2022/06/15 08:17:29;;;;;;;;;;;;;;;29.74;28.13;99375.03;5057750;28;19967;-86
2022/06/15 08:20:00;;;;;;;;;;;;;;;30.08;27.40;99380.59;5075126;28;19964;-85
2022/06/15 08:22:26;;;;;;;;;;;;;;;30.19;27.44;99378.88;5057522;28;19924;-85
2022/06/15 08:24:53;;;;;;;;;;;;;;;30.21;27.66;99377.56;5057772;28;20043;-85
2022/06/15 08:27:20;;;;;;;;;;;;;;;30.51;27.20;99375.53;5092394;28;19925;-84
2022/06/15 08:29:47;;;;;;;;;;;;;;;30.88;26.62;99365.63;5077071;28;19963;-85
2022/06/15 08:32:14;;;;;;;;;;;;;;;31.29;25.89;99370.84;5074080;28;19950;-85
2022/06/15 08:34:40;;;;;;;;;;;;;;;31.63;25.72;99377.91;5073968;28;19970;-86
2022/06/15 08:37:07;;;;;;;;;;;;;;;31.52;25.71;99373.38;5040631;28;19924;-85
2022/06/15 08:39:33;;;;;;;;;;;;;;;30.93;26.62;99367.63;5056986;28;20403;-85
2022/06/15 08:42:14;;;;;;;;;;;;;;;30.78;26.43;99368.25;5057340;28;19983;-85
2022/06/15 08:44:39;;;;;;;;;;;;;;;31.02;26.29;99355.03;5090899;28;19978;-85
2022/06/15 08:47:05;;;;;;;;;;;;;;;30.65;26.40;99366.63;5057323;28;20394;-86
2022/06/15 08:49:40;;;;;;;;;;;;;;;29.88;27.65;99360.94;5040491;28;19924;-82
2022/06/15 08:52:10;;;;;;;;;;;;;;;29.61;28.02;99361.56;5056887;28;19931;-84
2022/06/15 08:54:38;;;;;;;;;;;;;;;29.17;29.16;99361.22;5057118;28;20387;-84
2022/06/15 08:57:23;;;;;;;;;;;;;;;28.95;29.31;99360.16;5073362;28;20387;-85
2022/06/15 08:59:52;;;;;;;;;;;;;;;28.74;29.69;99356.97;5040255;28;19968;-85
2022/06/15 09:02:18;;;;;;;;;;;;;;;28.75;29.92;99364.13;5074797;28;19928;-85
2022/06/15 09:05:02;;;;;;;;;;;;;;;28.72;30.63;99363.78;5073651;28;20299;-85
2022/06/15 09:07:46;;;;;;;;;;;;;;;28.68;30.71;99366.16;5073811;28;19924;-85
2022/06/15 09:10:18;;;;;;;;;;;;;;;28.47;30.90;99362.13;5040187;28;19947;-86
2022/06/15 09:12:50;;;;;;;;;;;;;;;28.21;31.48;99360.66;5056988;28;20333;-84
2022/06/15 09:15:34;;;;;;;;;;;;;;;28.46;30.96;99354.09;5073962;28;19932;-84
2022/06/15 09:18:03;;;;;;;;;;;;;;;28.92;30.60;99360.63;5073591;28;19946;-83
2022/06/15 09:20:32;;;;;;;;;;;;;;;29.15;29.79;99351.50;5057386;28;20018;-85
2022/06/15 09:23:02;;;;;;;;;;;;;;;29.21;29.79;99354.13;5074189;28;19981;-84
2022/06/15 09:25:27;;;;;;;;;;;;;;;29.07;29.66;99354.66;5089832;28;19929;-85
2022/06/15 09:27:59;;;;;;;;;;;;;;;29.18;29.26;99354.63;5056503;28;19924;-85
2022/06/15 09:30:27;;;;;;;;;;;;;;;29.19;28.99;99356.31;5089815;28;20299;-85
2022/06/15 09:32:59;;;;;;;;;;;;;;;29.48;28.53;99343.38;5039742;28;19925;-84
2022/06/15 09:35:37;;;;;;;;;;;;;;;29.39;28.96;99346.78;5074235;28;20434;-84
2022/06/15 09:38:04;;;;;;;;;;;;;;;29.68;28.16;99342.97;5090056;28;19946;-85
2022/06/15 09:40:36;;;;;;;;;;;;;;;30.06;28.47;99352.47;5072884;28;19928;-85
2022/06/15 09:43:28;;;;;;;;;;;;;;;30.73;28.64;99335.88;5056049;28;19924;-85
2022/06/15 09:46:02;;;;;;;;;;;;;;;31.33;26.71;99342.50;5058023;28;19959;-85
2022/06/15 09:48:28;;;;;;;;;;;;;;;31.43;26.87;99341.75;5074353;28;19984;-84
2022/06/15 09:51:11;;;;;;;;;;;;;;;31.36;25.21;99349.41;5090718;28;19925;-85
2022/06/15 09:53:59;;;;;;;;;;;;;;;31.90;24.84;99346.69;5076746;28;20341;-86
2022/06/15 09:56:25;;;;;;;;;;;;;;;31.80;24.55;99338.28;5058437;28;19924;-85
2022/06/15 09:58:54;;;;;;;;;;;;;;;32.33;24.55;99336.53;5058187;28;20298;-85
2022/06/15 10:01:21;;;;;;;;;;;;;;;32.53;23.94;99342.22;5096851;28;19924;-85
2022/06/15 10:03:48;;;;;;;;;;;;;;;32.47;24.32;99337.78;5072903;28;19988;-85
2022/06/15 10:06:27;;;;;;;;;;;;;;;32.37;24.49;99332.13;5054639;28;19950;-86
2022/06/15 10:08:54;;;;;;;;;;;;;;;33.25;24.34;99328.75;5065711;28;19973;-85
2022/06/15 10:11:27;;;;;;;;;;;;;;;34.15;23.10;99328.41;5080886;28;19924;-84
2022/06/15 10:13:53;;;;;;;;;;;;;;;34.70;22.52;99330.31;5075609;28;19924;-86
2022/06/15 10:16:19;;;;;;;;;;;;;;;34.59;23.29;99322.28;5058140;28;19925;-85
2022/06/15 10:18:49;;;;;;;;;;;;;;;34.75;23.19;99324.72;5075925;28;19970;-84
2022/06/15 10:21:15;;;;;;;;;;;;;;;34.82;22.90;99321.66;5090412;28;19924;-86
2022/06/15 10:23:50;;;;;;;;;;;;;;;35.12;22.62;99329.06;5073384;28;19931;-83
2022/06/15 10:26:22;;;;;;;;;;;;;;;34.49;22.80;99321.22;5073817;28;19973;-85
2022/06/15 10:28:48;;;;;;;;;;;;;;;34.49;23.04;99320.31;5073773;28;20334;-85
2022/06/15 10:31:16;;;;;;;;;;;;;;;34.89;22.42;99311.09;5071923;28;19928;-85
2022/06/15 10:33:44;;;;;;;;;;;;;;;34.32;22.43;99328.97;5072208;28;19924;-85
2022/06/15 10:36:21;;;;;;;;;;;;;;;34.04;23.13;99320.13;5073416;28;19924;-86
2022/06/15 10:38:49;;;;;;;;;;;;;;;34.28;22.35;99305.66;5055391;28;19928;-87
2022/06/15 10:44:02;;;;;;;;;;;;;;;35.66;21.31;99305.19;5065398;28;19931;-87
2022/06/15 10:46:47;;;;;;;;;;;;;;;34.89;22.25;99311.09;5073450;28;20395;-84
2022/06/15 10:49:13;;;;;;;;;;;;;;;33.54;22.99;99315.31;5055162;28;19924;-83
2022/06/15 10:51:39;;;;;;;;;;;;;;;33.00;23.52;99310.97;5073128;28;20368;-84
2022/06/15 10:54:14;;;;;;;;;;;;;;;33.53;23.56;99306.16;5039001;28;19931;-84
2022/06/15 11:02:37;;;;;;;;;;;;;;;32.07;24.41;99305.91;5062540;28;19978;-84
2022/06/15 11:05:09;;;;;;;;;;;;;;;33.14;23.57;99300.22;5039001;28;19924;-84
2022/06/15 11:07:38;;;;;;;;;;;;;;;34.51;22.64;99305.09;5072035;28;19931;-86
2022/06/15 11:10:08;;;;;;;;;;;;;;;35.97;21.21;99298.25;5038517;28;20260;-84
2022/06/15 11:12:46;;;;;;;;;;;;;;;36.82;20.02;99296.88;5071836;28;19928;-84
2022/06/15 11:15:20;;;;;;;;;;;;;;;36.78;19.80;99289.41;5072663;28;20438;-84
2022/06/15 11:18:06;;;;;;;;;;;;;;;36.59;19.81;99292.13;5088978;28;20011;-85
2022/06/15 11:20:44;;;;;;;;;;;;;;;37.36;19.06;99290.06;5090123;28;19925;-87
2022/06/15 11:23:23;;;;;;;;;;;;;;;37.34;18.42;99297.91;5077806;28;19982;-81
2022/06/15 11:25:51;;;;;;;;;;;;;;;36.99;18.40;99290.03;5077548;28;20028;-83
2022/06/15 11:28:20;;;;;;;;;;;;;;;37.50;18.39;99292.13;5076441;28;20454;-83
2022/06/15 11:31:07;;;;;;;;;;;;;;;38.53;18.16;99294.91;5043463;28;19924;-85
2022/06/15 11:33:35;;;;;;;;;;;;;;;39.40;17.52;99290.31;5068776;28;19924;-85
2022/06/15 11:36:04;;;;;;;;;;;;;;;39.43;16.84;99284.09;5085709;28;19924;-84
2022/06/15 11:38:30;;;;;;;;;;;;;;;39.60;16.78;99284.25;5069255;28;19924;-84
2022/06/15 11:41:16;;;;;;;;;;;;;;;39.41;16.78;99290.00;5052690;28;20032;-85
2022/06/15 11:43:44;;;;;;;;;;;;;;;38.36;17.37;99287.09;5068820;28;19924;-84
2022/06/15 11:46:28;;;;;;;;;;;;;;;39.34;16.79;99287.66;5051206;28;19931;-82
2022/06/15 11:49:12;;;;;;;;;;;;;;;39.50;16.57;99284.50;5087956;28;20039;-89
2022/06/15 11:51:57;;;;;;;;;;;;;;;39.82;16.08;99289.06;5082313;28;20398;-84
2022/06/15 11:54:30;;;;;;;;;;;;;;;38.74;16.45;99289.72;5075535;28;19924;-86
2022/06/15 11:57:15;;;;;;;;;;;;;;;38.72;17.03;99287.25;5092367;28;19932;-86
2022/06/15 11:59:56;;;;;;;;;;;;;;;40.00;15.90;99273.22;5058578;28;19971;-85
2022/06/15 12:02:39;;;;;;;;;;;;;;;40.78;15.53;99274.47;5075079;28;19925;-88
2022/06/15 12:05:43;;;;;;;;;;;;;;;40.43;15.36;99283.84;5073971;28;19951;-85
2022/06/15 12:08:12;;;;;;;;;;;;;;;39.67;15.56;99276.25;5053659;28;20305;-85
2022/06/15 12:10:53;;;;;;;;;;;;;;;39.43;15.90;99275.72;5054137;28;19936;-86
2022/06/15 12:13:21;;;;;;;;;;;;;;;38.85;16.11;99278.03;5035544;28;19924;-85
2022/06/15 12:15:57;;;;;;;;;;;;;;;39.55;15.86;99267.59;5075278;28;19928;-85
2022/06/15 12:18:47;;;;;;;;;;;;;;;39.34;16.06;99270.03;5059822;28;19982;-84
2022/06/15 12:21:25;;;;;;;;;;;;;;;38.77;16.22;99275.13;5074510;28;19925;-85
2022/06/15 12:23:59;;;;;;;;;;;;;;;39.08;16.73;99278.97;5074414;28;20031;-86
2022/06/15 12:26:36;;;;;;;;;;;;;;;39.99;16.02;99274.38;5056694;28;20379;-85
2022/06/15 12:29:11;;;;;;;;;;;;;;;40.29;15.64;99270.78;5056463;28;20023;-85
2022/06/15 12:34:54;;;;;;;;;;;;;;;40.84;14.95;99277.13;5068138;28;19925;-85
2022/06/15 12:37:31;;;;;;;;;;;;;;;41.05;15.07;99258.56;5040651;28;20383;-85
2022/06/15 12:40:20;;;;;;;;;;;;;;;41.95;14.35;99272.00;5075266;28;19924;-85
2022/06/15 12:42:48;;;;;;;;;;;;;;;41.96;14.21;99274.47;5049625;28;19936;-86
2022/06/15 12:45:16;;;;;;;;;;;;;;;41.27;14.88;99268.03;5074038;28;19925;-85
2022/06/15 12:47:48;;;;;;;;;;;;;;;40.02;15.65;99268.97;5075577;28;20303;-83
2022/06/15 12:50:25;;;;;;;;;;;;;;;39.81;15.71;99267.81;5057329;28;19935;-82
2022/06/15 12:52:57;;;;;;;;;;;;;;;39.90;15.90;99265.06;5041019;28;20432;-84
2022/06/15 12:55:23;;;;;;;;;;;;;;;40.62;15.49;99264.84;5057175;28;20026;-83
2022/06/15 12:58:07;;;;;;;;;;;;;;;40.26;15.65;99262.19;5074555;28;20019;-83
2022/06/15 13:00:38;;;;;;;;;;;;;;;41.58;14.44;99253.84;5040367;28;20409;-84
2022/06/15 13:03:15;;;;;;;;;;;;;;;41.73;14.35;99253.34;5073721;28;19931;-85
2022/06/15 13:05:41;;;;;;;;;;;;;;;41.35;14.92;99248.38;5075117;28;19924;-85
2022/06/15 13:08:22;;;;;;;;;;;;;;;40.69;14.86;99251.19;5057037;28;20284;-84
2022/06/15 13:10:53;;;;;;;;;;;;;;;40.74;15.54;99247.44;5074741;28;19954;-84
2022/06/15 13:13:25;;;;;;;;;;;;;;;41.41;14.75;99251.88;5089836;28;19924;-83
2022/06/15 13:15:51;;;;;;;;;;;;;;;41.95;14.64;99243.94;5057009;28;19947;-84
2022/06/15 13:18:18;;;;;;;;;;;;;;;42.75;14.48;99234.91;5074465;28;19924;-84